createdAt,value
2023-03-06T00:01:11.509Z,5.47
2023-03-06T00:03:40.366Z,6.32
2023-03-06T00:06:07.502Z,5.45
2023-03-06T00:08:33.974Z,6.50
2023-03-06T00:11:00.374Z,6.03
2023-03-06T00:13:28.284Z,7.10
2023-03-06T00:15:59.525Z,6.43
2023-03-06T00:18:25.985Z,5.22
2023-03-06T00:20:52.508Z,5.38
2023-03-06T00:23:19.026Z,6.40
2023-03-06T00:25:46.318Z,5.70
2023-03-06T00:28:13.338Z,6.85
2023-03-06T00:30:42.408Z,5.63
2023-03-06T00:33:10.239Z,6.03
2023-03-06T00:35:39.006Z,6.20
2023-03-06T00:38:05.576Z,6.25
2023-03-06T00:40:32.604Z,6.53
2023-03-06T00:42:59.821Z,5.80
2023-03-06T00:45:26.308Z,5.68
2023-03-06T00:47:52.692Z,5.65
2023-03-06T00:50:20.427Z,7.03
2023-03-06T00:52:46.854Z,6.10
2023-03-06T00:55:16.374Z,6.43
2023-03-06T00:57:44.056Z,6.22
2023-03-06T01:00:15.617Z,5.75
2023-03-06T01:02:47.881Z,6.35
2023-03-06T01:05:16.113Z,6.07
2023-03-06T01:07:51.225Z,6.35
2023-03-06T01:10:19.157Z,5.30
2023-03-06T01:12:47.415Z,5.43
2023-03-06T01:15:14.047Z,6.18
2023-03-06T01:17:50.778Z,6.78
2023-03-06T01:20:17.911Z,5.75
2023-03-06T01:22:48.248Z,6.45
2023-03-06T01:25:15.286Z,5.88
2023-03-06T01:27:42.575Z,6.40
2023-03-06T01:30:12.702Z,6.70
2023-03-06T01:32:39.163Z,6.93
2023-03-06T01:35:07.640Z,6.13
2023-03-06T01:37:35.206Z,5.80
2023-03-06T01:40:05.935Z,5.93
2023-03-06T01:42:32.472Z,5.85
2023-03-06T01:45:06.016Z,6.63
2023-03-06T01:47:34.302Z,6.22
2023-03-06T01:50:02.654Z,6.70
2023-03-06T01:52:32.970Z,6.00
2023-03-06T01:55:02.670Z,5.63
2023-03-06T01:57:33.774Z,6.28
2023-03-06T02:00:04.434Z,6.10
2023-03-06T02:02:43.413Z,5.95
2023-03-06T02:05:16.417Z,6.50
2023-03-06T02:10:19.260Z,5.60
2023-03-06T02:12:49.093Z,6.45
2023-03-06T02:15:18.634Z,6.63
2023-03-06T02:17:47.585Z,6.80
2023-03-06T02:20:22.541Z,6.32
2023-03-06T02:22:54.082Z,6.53
2023-03-06T02:25:36.004Z,6.00
2023-03-06T02:28:03.840Z,5.97
2023-03-06T02:30:30.746Z,5.95
2023-03-06T02:32:58.158Z,6.55
2023-03-06T02:35:26.396Z,7.53
2023-03-06T02:37:54.018Z,6.72
2023-03-06T02:40:23.186Z,6.55
2023-03-06T02:42:53.518Z,5.25
2023-03-06T02:45:25.637Z,6.80
2023-03-06T02:47:52.056Z,6.75
2023-03-06T02:50:18.667Z,6.57
2023-03-06T02:52:45.178Z,6.45
2023-03-06T02:55:11.761Z,6.07
2023-03-06T02:57:38.246Z,8.27
2023-03-06T03:00:07.569Z,7.35
2023-03-06T03:02:34.104Z,7.18
2023-03-06T03:05:00.547Z,7.22
2023-03-06T03:07:35.738Z,6.53
2023-03-06T03:10:03.911Z,5.97
2023-03-06T03:12:31.977Z,6.90
2023-03-06T03:14:58.961Z,6.45
2023-03-06T03:17:30.253Z,7.47
2023-03-06T03:20:00.012Z,6.63
2023-03-06T03:22:26.541Z,6.93
2023-03-06T03:24:53.090Z,7.72
2023-03-06T03:27:32.299Z,6.82
2023-03-06T03:30:00.474Z,6.57
2023-03-06T03:32:30.251Z,7.13
2023-03-06T03:35:17.973Z,7.25
2023-03-06T03:37:47.825Z,7.45
2023-03-06T03:40:17.737Z,7.45
2023-03-06T03:42:45.943Z,8.50
2023-03-06T03:45:14.870Z,8.30
2023-03-06T03:47:50.246Z,7.70
2023-03-06T03:50:16.886Z,7.35
2023-03-06T03:52:43.854Z,7.50
2023-03-06T03:55:15.763Z,7.03
2023-03-06T03:57:44.715Z,8.02
2023-03-06T04:00:13.195Z,8.02
2023-03-06T04:02:58.220Z,7.10
2023-03-06T04:05:32.642Z,8.30
2023-03-06T04:07:59.912Z,7.70
2023-03-06T04:10:26.358Z,7.32
2023-03-06T04:12:53.806Z,7.65
2023-03-06T04:15:20.383Z,8.07
2023-03-06T04:17:47.809Z,8.98
2023-03-06T04:20:19.511Z,7.35
2023-03-06T04:22:47.003Z,7.97
2023-03-06T04:25:16.239Z,6.93
2023-03-06T04:27:42.820Z,7.20
2023-03-06T04:30:11.381Z,6.65
2023-03-06T04:32:37.979Z,6.95
2023-03-06T04:35:05.435Z,6.20
2023-03-06T04:37:38.038Z,8.07
2023-03-06T04:40:06.115Z,8.77
2023-03-06T04:42:32.827Z,6.93
2023-03-06T04:44:59.259Z,7.78
2023-03-06T04:47:25.735Z,8.02
2023-03-06T04:49:52.158Z,9.27
2023-03-06T04:52:18.562Z,7.35
2023-03-06T04:54:46.286Z,8.32
2023-03-06T04:57:14.334Z,8.23
2023-03-06T04:59:40.820Z,9.18
2023-03-06T05:02:09.470Z,9.48
2023-03-06T05:04:35.953Z,7.97
2023-03-06T05:07:02.389Z,8.05
2023-03-06T05:09:28.909Z,8.07
2023-03-06T05:11:56.722Z,8.07
2023-03-06T05:14:23.140Z,8.07
2023-03-06T05:16:49.606Z,8.93
2023-03-06T05:19:16.449Z,8.00
2023-03-06T05:21:43.037Z,9.68
2023-03-06T05:24:11.610Z,7.97
2023-03-06T05:26:38.104Z,8.30
2023-03-06T05:29:06.070Z,8.45
2023-03-06T05:31:32.610Z,7.25
2023-03-06T05:33:59.167Z,8.13
2023-03-06T05:36:25.580Z,8.68
2023-03-06T05:38:52.349Z,9.30
2023-03-06T05:41:18.760Z,8.23
2023-03-06T05:43:46.809Z,8.50
2023-03-06T05:46:17.374Z,9.25
2023-03-06T05:48:45.346Z,9.10
2023-03-06T05:51:13.216Z,8.85
2023-03-06T05:53:42.405Z,9.25
2023-03-06T05:56:15.828Z,8.73
2023-03-06T05:58:51.194Z,9.15
2023-03-06T06:01:20.587Z,8.73
2023-03-06T06:03:47.427Z,8.45
2023-03-06T06:06:16.806Z,8.90
2023-03-06T06:08:44.971Z,8.98
2023-03-06T06:11:16.500Z,7.43
2023-03-06T06:13:42.933Z,9.20
2023-03-06T06:16:11.954Z,9.70
2023-03-06T06:18:49.350Z,9.20
2023-03-06T06:21:17.886Z,9.15
2023-03-06T06:23:45.639Z,8.63
2023-03-06T06:26:16.629Z,8.45
2023-03-06T06:28:48.877Z,8.35
2023-03-06T06:31:18.366Z,7.50
2023-03-06T06:33:48.509Z,10.73
2023-03-06T06:36:19.386Z,9.43
2023-03-06T06:38:48.538Z,8.32
2023-03-06T06:44:06.711Z,8.77
2023-03-06T06:47:21.240Z,9.73
2023-03-06T06:49:22.916Z,10.52
2023-03-06T06:51:49.346Z,9.07
2023-03-06T06:54:16.050Z,9.10
2023-03-06T06:56:46.812Z,8.48
2023-03-06T07:01:44.415Z,7.32
2023-03-06T07:04:13.100Z,7.93
2023-03-06T07:06:46.642Z,8.50
2023-03-06T07:09:18.922Z,8.25
2023-03-06T07:11:45.365Z,8.30
2023-03-06T07:14:18.153Z,7.68
2023-03-06T07:16:46.860Z,9.27
2023-03-06T07:19:15.307Z,9.18
2023-03-06T07:21:45.451Z,8.18
2023-03-06T07:24:11.908Z,8.57
2023-03-06T07:26:38.451Z,8.90
2023-03-06T07:29:05.077Z,8.05
2023-03-06T07:31:32.279Z,8.98
2023-03-06T07:33:59.100Z,10.63
2023-03-06T07:36:25.631Z,9.27
2023-03-06T07:38:53.457Z,10.25
2023-03-06T07:41:22.469Z,9.93
2023-03-06T07:43:49.874Z,10.25
2023-03-06T07:46:17.042Z,9.82
2023-03-06T07:48:44.917Z,9.60
2023-03-06T07:51:16.919Z,9.85
2023-03-06T07:53:45.840Z,9.45
2023-03-06T07:56:21.453Z,9.00
2023-03-06T07:58:51.147Z,9.40
2023-03-06T08:01:21.512Z,9.57
2023-03-06T08:03:48.435Z,10.20
2023-03-06T08:06:21.319Z,9.93
2023-03-06T08:08:49.606Z,10.52
2023-03-06T08:11:19.325Z,10.30
2023-03-06T08:13:48.616Z,11.23
2023-03-06T08:16:19.359Z,9.55
2023-03-06T08:23:46.878Z,9.63
2023-03-06T08:26:16.196Z,9.77
2023-03-06T08:28:52.290Z,9.20
2023-03-06T08:31:26.084Z,10.00
2023-03-06T08:33:52.815Z,10.65
2023-03-06T08:36:19.288Z,11.43
2023-03-06T08:38:47.743Z,11.70
2023-03-06T08:41:16.946Z,12.35
2023-03-06T08:43:47.424Z,9.10
2023-03-06T08:46:16.195Z,11.30
2023-03-06T08:48:48.521Z,10.25
2023-03-06T08:51:18.380Z,10.15
2023-03-06T08:53:47.151Z,11.82
2023-03-06T08:56:17.934Z,12.82
2023-03-06T08:58:46.413Z,11.32
2023-03-06T09:01:17.199Z,11.07
2023-03-06T09:06:15.752Z,10.50
2023-03-06T09:08:46.436Z,10.82
2023-03-06T09:13:46.673Z,10.15
2023-03-06T09:16:15.923Z,10.88
2023-03-06T09:18:45.413Z,9.85
2023-03-06T09:21:13.840Z,11.52
2023-03-06T09:23:46.587Z,9.82
2023-03-06T09:26:14.615Z,11.20
2023-03-06T09:28:47.385Z,10.70
2023-03-06T09:31:18.829Z,9.60
2023-03-06T09:33:48.262Z,10.32
2023-03-06T09:36:17.166Z,10.38
2023-03-06T09:38:48.767Z,10.75
2023-03-06T09:41:28.936Z,11.73
2023-03-06T09:44:03.290Z,10.63
2023-03-06T09:46:41.812Z,10.80
2023-03-06T09:49:32.770Z,12.35
2023-03-06T09:52:08.019Z,11.02
2023-03-06T09:54:44.273Z,12.40
2023-03-06T09:57:21.080Z,11.73
2023-03-06T09:59:54.238Z,12.40
2023-03-06T10:02:29.190Z,11.85
2023-03-06T10:05:00.284Z,12.40
2023-03-06T10:07:33.453Z,12.45
2023-03-06T10:10:03.138Z,13.63
2023-03-06T10:12:35.276Z,14.20
2023-03-06T10:15:14.189Z,14.32
2023-03-06T10:17:43.764Z,14.82
2023-03-06T10:20:18.622Z,16.85
2023-03-06T10:23:03.161Z,15.32
2023-03-06T10:25:36.299Z,15.00
2023-03-06T10:28:13.894Z,16.40
2023-03-06T10:30:53.763Z,16.10
2023-03-06T10:33:26.653Z,16.50
2023-03-06T10:35:54.648Z,15.70
2023-03-06T10:38:22.965Z,15.52
2023-03-06T10:41:06.034Z,14.60
2023-03-06T10:43:35.805Z,15.25
2023-03-06T10:46:05.242Z,14.48
2023-03-06T10:48:32.672Z,14.63
2023-03-06T10:51:18.915Z,12.40
2023-03-06T10:53:51.497Z,12.88
2023-03-06T10:56:27.583Z,12.65
2023-03-06T10:59:08.795Z,14.05
2023-03-06T11:01:37.611Z,12.63
2023-03-06T11:04:16.814Z,12.55
2023-03-06T11:07:03.818Z,12.05
2023-03-06T11:09:30.289Z,12.10
2023-03-06T11:12:19.225Z,12.70
2023-03-06T11:14:45.688Z,13.40
2023-03-06T11:17:27.269Z,13.57
2023-03-06T11:20:15.986Z,12.60
2023-03-06T11:22:49.029Z,12.38
2023-03-06T11:25:18.305Z,13.20
2023-03-06T11:27:53.108Z,12.98
2023-03-06T11:30:23.825Z,13.38
2023-03-06T11:32:55.240Z,12.80
2023-03-06T11:35:24.586Z,12.45
2023-03-06T11:37:55.216Z,12.05
2023-03-06T11:42:59.175Z,11.90
2023-03-06T11:45:28.989Z,11.05
2023-03-06T11:48:05.227Z,11.20
2023-03-06T11:50:35.652Z,11.43
2023-03-06T11:53:03.684Z,11.00
2023-03-06T11:55:45.677Z,11.95
2023-03-06T11:58:35.317Z,10.90
2023-03-06T12:01:07.322Z,10.48
2023-03-06T12:03:52.057Z,10.68
2023-03-06T12:06:24.706Z,9.77
2023-03-06T12:09:01.096Z,10.77
2023-03-06T12:11:37.769Z,11.48
2023-03-06T12:14:19.661Z,11.10
2023-03-06T12:17:12.867Z,10.25
2023-03-06T12:20:14.976Z,11.25
2023-03-06T12:22:57.906Z,9.98
2023-03-06T12:25:34.493Z,9.85
2023-03-06T12:28:26.970Z,11.38
2023-03-06T12:31:24.311Z,8.80
2023-03-06T12:34:05.926Z,6.90
2023-03-06T12:36:53.484Z,6.90
2023-03-06T12:39:29.926Z,5.95
2023-03-06T12:42:23.112Z,6.53
2023-03-06T12:45:22.188Z,5.85
2023-03-06T12:47:54.002Z,5.32
2023-03-06T12:50:23.966Z,5.35
2023-03-06T12:52:52.906Z,5.85
2023-03-06T12:55:24.342Z,5.45
2023-03-06T12:57:52.561Z,5.85
2023-03-06T13:01:03.550Z,5.88
2023-03-06T13:03:36.060Z,6.25
2023-03-06T13:06:39.248Z,7.35
2023-03-06T13:09:17.958Z,6.85
2023-03-06T13:12:08.066Z,9.05
2023-03-06T13:14:54.684Z,8.50
2023-03-06T13:17:27.964Z,9.60
2023-03-06T13:20:34.931Z,9.73
2023-03-06T13:23:52.205Z,10.07
2023-03-06T13:26:55.817Z,10.20
2023-03-06T13:29:59.155Z,9.23
2023-03-06T13:32:34.814Z,9.32
2023-03-06T13:35:01.756Z,9.43
2023-03-06T13:37:47.853Z,10.93
2023-03-06T13:40:28.786Z,11.32
2023-03-06T13:43:04.338Z,10.57
2023-03-06T13:45:38.495Z,10.68
2023-03-06T13:48:30.243Z,9.73
2023-03-06T13:50:53.708Z,10.63
2023-03-06T13:54:01.569Z,8.43
2023-03-06T13:57:17.598Z,9.32
2023-03-06T14:00:10.635Z,9.80
2023-03-06T14:02:53.369Z,9.77
2023-03-06T14:05:20.308Z,9.45
2023-03-06T14:07:48.015Z,9.98
2023-03-06T14:10:23.552Z,8.85
2023-03-06T14:13:01.413Z,9.77
2023-03-06T14:15:36.760Z,8.63
2023-03-06T14:18:05.972Z,9.13
2023-03-06T14:20:40.135Z,10.80
2023-03-06T14:23:23.183Z,9.52
2023-03-06T14:25:54.950Z,10.68
2023-03-06T14:28:23.095Z,11.10
2023-03-06T14:30:51.890Z,10.20
2023-03-06T14:33:29.124Z,10.18
2023-03-06T14:35:58.310Z,11.07
2023-03-06T14:38:35.122Z,11.73
2023-03-06T14:41:02.955Z,10.35
2023-03-06T14:43:29.367Z,9.75
2023-03-06T14:45:59.117Z,11.57
2023-03-06T14:48:38.709Z,11.35
2023-03-06T14:51:07.431Z,11.27
2023-03-06T14:53:34.885Z,10.90
2023-03-06T14:56:05.011Z,11.32
2023-03-06T14:58:36.304Z,10.90
2023-03-06T15:01:08.244Z,12.38
2023-03-06T15:03:45.678Z,13.77
2023-03-06T15:06:22.459Z,14.70
2023-03-06T15:11:26.144Z,13.68
2023-03-06T15:14:03.034Z,12.88
2023-03-06T15:16:31.431Z,12.68
2023-03-06T15:19:00.121Z,12.57
2023-03-06T15:21:29.370Z,12.13
2023-03-06T15:23:57.495Z,12.57
2023-03-06T15:26:30.485Z,10.52
2023-03-06T15:29:08.906Z,12.25
2023-03-06T15:31:38.987Z,11.65
2023-03-06T15:34:17.698Z,12.10
2023-03-06T15:36:48.721Z,10.50
2023-03-06T15:39:33.836Z,11.15
2023-03-06T15:42:01.178Z,12.13
2023-03-06T15:44:30.496Z,12.20
2023-03-06T15:47:08.436Z,12.35
2023-03-06T15:49:37.241Z,12.02
2023-03-06T15:52:05.871Z,12.13
2023-03-06T15:54:33.076Z,12.60
2023-03-06T15:56:59.835Z,11.70
2023-03-06T15:59:28.887Z,13.40
2023-03-06T16:01:55.350Z,12.00
2023-03-06T16:04:23.122Z,10.43
2023-03-06T16:06:49.567Z,11.90
2023-03-06T16:09:16.065Z,10.27
2023-03-06T16:11:47.719Z,11.05
2023-03-06T16:14:18.737Z,9.82
2023-03-06T16:16:48.930Z,10.35
2023-03-06T16:19:27.894Z,9.05
2023-03-06T16:21:56.606Z,7.78
2023-03-06T16:24:23.251Z,9.57
2023-03-06T16:26:51.410Z,8.50
2023-03-06T16:29:19.221Z,9.00
2023-03-06T16:31:48.396Z,8.20
2023-03-06T16:34:16.805Z,9.35
2023-03-06T16:36:45.849Z,9.40
2023-03-06T16:39:16.891Z,9.15
2023-03-06T16:41:43.744Z,7.68
2023-03-06T16:44:10.240Z,8.38
2023-03-06T16:46:41.304Z,9.45
2023-03-06T16:49:16.399Z,8.75
2023-03-06T16:51:48.378Z,8.48
2023-03-06T16:54:17.754Z,8.55
2023-03-06T16:56:46.100Z,7.93
2023-03-06T16:59:15.532Z,8.60
2023-03-06T17:01:48.063Z,8.93
2023-03-06T17:04:14.695Z,8.40
2023-03-06T17:06:47.331Z,8.18
2023-03-06T17:09:13.848Z,9.32
2023-03-06T17:11:44.269Z,8.57
2023-03-06T17:14:11.965Z,9.95
2023-03-06T17:16:47.580Z,9.13
2023-03-06T17:19:17.601Z,10.85
2023-03-06T17:21:50.092Z,11.93
2023-03-06T17:24:18.333Z,9.18
2023-03-06T17:26:47.912Z,11.43
2023-03-06T17:29:14.657Z,10.38
2023-03-06T17:31:45.509Z,10.68
2023-03-06T17:34:18.001Z,11.18
2023-03-06T17:36:46.452Z,10.15
2023-03-06T17:39:14.231Z,11.82
2023-03-06T17:41:47.059Z,10.30
2023-03-06T17:44:17.537Z,9.63
2023-03-06T17:46:44.196Z,9.98
2023-03-06T17:49:17.101Z,11.85
2023-03-06T17:51:49.559Z,10.07
2023-03-06T17:54:16.112Z,12.18
2023-03-06T17:56:47.516Z,11.93
2023-03-06T17:59:16.602Z,10.85
2023-03-06T18:01:48.801Z,10.05
2023-03-06T18:04:17.115Z,9.65
2023-03-06T18:06:46.469Z,10.65
2023-03-06T18:09:15.717Z,11.88
2023-03-06T18:11:46.152Z,10.40
2023-03-06T18:14:20.320Z,11.20
2023-03-06T18:16:48.163Z,10.75
2023-03-06T18:19:16.579Z,10.88
2023-03-06T18:21:48.929Z,12.57
2023-03-06T18:24:18.410Z,11.50
2023-03-06T18:26:46.659Z,12.15
2023-03-06T18:29:18.967Z,11.32
2023-03-06T18:31:45.622Z,9.55
2023-03-06T18:34:18.389Z,11.75
2023-03-06T18:36:48.431Z,9.40
2023-03-06T18:39:15.527Z,10.82
2023-03-06T18:41:48.130Z,10.77
2023-03-06T18:44:16.680Z,10.35
2023-03-06T18:46:46.249Z,9.60
2023-03-06T18:49:15.608Z,10.27
2023-03-06T18:51:43.535Z,10.50
2023-03-06T18:54:17.510Z,10.55
2023-03-06T18:56:46.951Z,10.68
2023-03-06T18:59:19.065Z,10.38
2023-03-06T19:01:48.088Z,10.77
2023-03-06T19:04:17.494Z,11.63
2023-03-06T19:06:47.833Z,11.80
2023-03-06T19:09:16.934Z,11.32
2023-03-06T19:11:46.166Z,11.15
2023-03-06T19:14:14.155Z,10.65
2023-03-06T19:16:42.358Z,10.90
2023-03-06T19:19:08.844Z,9.25
2023-03-06T19:21:35.279Z,11.50
2023-03-06T19:24:03.361Z,9.98
2023-03-06T19:26:29.823Z,10.52
2023-03-06T19:28:56.282Z,11.43
2023-03-06T19:31:25.571Z,10.52
2023-03-06T19:33:53.848Z,12.18
2023-03-06T19:36:21.432Z,11.13
2023-03-06T19:38:47.925Z,11.27
2023-03-06T19:41:18.290Z,10.40
2023-03-06T19:43:45.836Z,11.07
2023-03-06T19:46:16.154Z,13.52
2023-03-06T19:48:47.832Z,11.98
2023-03-06T19:51:17.092Z,10.80
2023-03-06T19:53:49.743Z,11.98
2023-03-06T19:56:20.534Z,11.52
2023-03-06T20:01:20.693Z,11.50
2023-03-06T20:03:50.376Z,11.20
2023-03-06T20:06:18.977Z,11.90
2023-03-06T20:08:47.803Z,10.40
2023-03-06T20:11:17.133Z,10.77
2023-03-06T20:13:50.960Z,10.07
2023-03-06T20:16:18.272Z,9.73
2023-03-06T20:18:49.840Z,12.05
2023-03-06T20:21:19.148Z,11.85
2023-03-06T20:23:48.677Z,12.88
2023-03-06T20:26:18.714Z,13.32
2023-03-06T20:28:47.170Z,13.90
2023-03-06T20:31:19.067Z,13.05
2023-03-06T20:33:49.464Z,13.90
2023-03-06T20:36:19.860Z,13.00
2023-03-06T20:38:50.623Z,14.25
2023-03-06T20:43:49.134Z,11.98
2023-03-06T20:46:18.778Z,11.90
2023-03-06T20:48:49.000Z,12.15
2023-03-06T20:51:20.690Z,13.13
2023-03-06T20:53:48.922Z,13.90
2023-03-06T20:56:19.107Z,13.00
2023-03-06T20:58:47.667Z,12.60
2023-03-06T21:01:19.966Z,13.10
2023-03-06T21:03:48.711Z,10.88
2023-03-06T21:06:17.854Z,11.43
2023-03-06T21:08:48.090Z,12.55
2023-03-06T21:11:18.576Z,10.55
2023-03-06T21:13:47.142Z,11.38
2023-03-06T21:16:21.502Z,12.30
2023-03-06T21:18:48.146Z,10.90
2023-03-06T21:21:20.074Z,10.95
2023-03-06T21:23:49.956Z,10.65
2023-03-06T21:26:25.616Z,13.23
2023-03-06T21:28:52.949Z,11.52
2023-03-06T21:31:21.688Z,11.88
2023-03-06T21:33:49.531Z,11.32
2023-03-06T21:36:21.793Z,10.98
2023-03-06T21:38:49.705Z,12.35
2023-03-06T21:41:24.425Z,11.70
2023-03-06T21:43:56.433Z,11.27
2023-03-06T21:46:25.066Z,12.43
2023-03-06T21:48:52.047Z,12.27
2023-03-06T21:51:20.523Z,14.45
2023-03-06T21:53:47.951Z,10.18
2023-03-06T21:56:22.149Z,12.10
2023-03-06T21:58:48.710Z,10.23
2023-03-06T22:01:18.015Z,11.13
2023-03-06T22:03:48.320Z,11.30
2023-03-06T22:06:17.051Z,11.98
2023-03-06T22:08:46.036Z,11.90
2023-03-06T22:11:20.513Z,11.00
2023-03-06T22:13:47.912Z,10.60
2023-03-06T22:16:17.376Z,12.77
2023-03-06T22:18:50.488Z,11.77
2023-03-06T22:21:19.123Z,12.07
2023-03-06T22:23:49.076Z,12.00
2023-03-06T22:26:17.341Z,12.07
2023-03-06T22:28:51.488Z,13.05
2023-03-06T22:31:21.051Z,11.50
2023-03-06T22:33:50.636Z,12.90
2023-03-06T22:36:17.099Z,13.32
2023-03-06T22:38:48.857Z,13.75
2023-03-06T22:41:18.353Z,13.55
2023-03-06T22:43:45.160Z,11.00
2023-03-06T22:46:19.146Z,12.85
2023-03-06T22:48:45.800Z,13.25
2023-03-06T22:51:18.243Z,12.52
2023-03-06T22:53:47.982Z,13.20
2023-03-06T22:56:19.871Z,12.40
2023-03-06T22:58:48.647Z,12.68
2023-03-06T23:01:22.386Z,11.60
2023-03-06T23:03:51.475Z,12.98
2023-03-06T23:06:21.441Z,13.05
2023-03-06T23:08:50.243Z,12.63
2023-03-06T23:11:18.500Z,12.77
2023-03-06T23:14:03.999Z,12.73
2023-03-06T23:16:48.905Z,12.07
2023-03-06T23:19:34.368Z,11.95
2023-03-06T23:22:20.649Z,12.30
2023-03-06T23:25:06.533Z,12.55
2023-03-06T23:27:35.538Z,12.38
2023-03-06T23:30:02.263Z,13.35
2023-03-06T23:32:28.914Z,11.35
2023-03-06T23:34:55.302Z,12.88
2023-03-06T23:37:23.169Z,13.45
2023-03-06T23:39:49.681Z,12.32
2023-03-06T23:42:16.249Z,13.40
2023-03-06T23:44:44.570Z,11.75
2023-03-06T23:47:11.033Z,11.63
2023-03-06T23:49:37.466Z,13.65
2023-03-06T23:52:04.150Z,12.73
2023-03-06T23:54:31.950Z,12.70
2023-03-06T23:56:58.385Z,13.07
2023-03-06T23:59:24.798Z,13.35
